Plank, Pennsylvania
Current Conditions -  °F | °C
As of 4:35 AM on Sunday 23 Nov 2014 (Local Time) from KN38 Reporting Station
Overcast Overcast  
Wind Chill: 34°   Ceiling: 3600
Heat Index: 34°   Visibility: 10mi
Dew Point: 32°   Wind: 3mph
Humidity: 93%   Direction: 210°SSW
Pressure: 30.09"   Gusts: NA
Location:  41.533°N, 77.3132°W
Report Text: KN38 230935Z AUTO 21003KT 10SM OVC036 01/M00 A3009 RMK AO2
Loading
Personal Weather Stations






























Interactive Weather Map New forecast layout! Learn more

10-Day Weather Forecast

Advertisements
Track Severe Weather on mobile